createdAt,value
2018-07-25T00:01:44.265Z,93.15
2018-07-25T00:04:13.414Z,93.27
2018-07-25T00:06:42.561Z,92.81
2018-07-25T00:09:12.008Z,92.88
2018-07-25T00:11:41.303Z,93.08
2018-07-25T00:14:10.427Z,92.69
2018-07-25T00:16:39.915Z,93.05
2018-07-25T00:19:09.205Z,92.62
2018-07-25T00:21:38.374Z,93.00
2018-07-25T00:24:07.548Z,92.95
2018-07-25T00:26:36.720Z,93.34
2018-07-25T00:29:06.108Z,93.16
2018-07-25T00:31:35.249Z,93.20
2018-07-25T00:34:04.442Z,93.30
2018-07-25T00:36:33.600Z,92.97
2018-07-25T00:39:02.795Z,93.44
2018-07-25T00:41:32.329Z,94.12
2018-07-25T00:44:01.496Z,94.08
2018-07-25T00:46:30.706Z,94.75
2018-07-25T00:48:59.912Z,94.77
2018-07-25T00:51:29.231Z,94.99
2018-07-25T00:53:58.361Z,94.93
2018-07-25T00:56:27.561Z,94.86
2018-07-25T00:58:56.932Z,95.29
2018-07-25T01:01:26.055Z,95.35
2018-07-25T01:03:55.173Z,95.48
2018-07-25T01:06:24.309Z,95.96
2018-07-25T01:08:53.464Z,96.23
2018-07-25T01:11:22.670Z,95.85
2018-07-25T01:13:51.816Z,95.94
2018-07-25T01:16:20.992Z,96.06
2018-07-25T01:18:50.157Z,96.31
2018-07-25T01:21:19.311Z,96.22
2018-07-25T01:23:48.565Z,96.75
2018-07-25T01:26:17.680Z,96.52
2018-07-25T01:28:46.836Z,96.43
2018-07-25T01:31:16.051Z,97.02
2018-07-25T01:33:45.307Z,96.67
2018-07-25T01:36:14.452Z,96.57
2018-07-25T01:38:43.598Z,96.99
2018-07-25T01:41:12.739Z,97.20
2018-07-25T01:43:42.776Z,96.98
2018-07-25T01:46:11.902Z,97.60
2018-07-25T01:48:41.057Z,97.36
2018-07-25T01:51:10.940Z,97.23
2018-07-25T01:53:40.068Z,97.12
2018-07-25T01:56:09.237Z,97.10
2018-07-25T01:58:38.423Z,96.86
2018-07-25T02:01:07.605Z,96.15
2018-07-25T02:03:36.772Z,96.37
2018-07-25T02:06:06.388Z,96.86
2018-07-25T02:08:35.540Z,96.70
2018-07-25T02:11:04.732Z,96.54
2018-07-25T02:13:33.910Z,96.91
2018-07-25T02:16:03.284Z,97.44
2018-07-25T02:18:32.626Z,97.57
2018-07-25T02:21:01.761Z,97.12
2018-07-25T02:23:30.939Z,96.90
2018-07-25T02:26:00.122Z,96.86
2018-07-25T02:28:29.304Z,97.24
2018-07-25T02:30:58.452Z,96.98
2018-07-25T02:33:32.936Z,97.22
2018-07-25T02:36:02.150Z,97.15
2018-07-25T02:38:31.304Z,97.71
2018-07-25T02:41:00.497Z,97.33
2018-07-25T02:43:29.674Z,97.54
2018-07-25T02:45:58.800Z,97.74
2018-07-25T02:48:28.040Z,97.56
2018-07-25T02:50:57.181Z,98.40
2018-07-25T02:53:26.331Z,98.30
2018-07-25T02:55:55.489Z,97.83
2018-07-25T02:58:25.671Z,98.10
2018-07-25T03:00:54.843Z,98.37
2018-07-25T03:03:24.104Z,98.21
2018-07-25T03:05:53.254Z,98.77
2018-07-25T03:08:22.415Z,98.63
2018-07-25T03:10:52.543Z,98.44
2018-07-25T03:13:22.115Z,98.49
2018-07-25T03:16:05.264Z,99.10
2018-07-25T03:18:34.404Z,98.78
2018-07-25T03:21:03.778Z,98.71
2018-07-25T03:23:33.962Z,98.97
2018-07-25T03:26:03.154Z,98.82
2018-07-25T03:28:32.437Z,98.88
2018-07-25T03:31:01.876Z,98.53
2018-07-25T03:33:31.024Z,98.91
2018-07-25T03:36:00.577Z,98.92
2018-07-25T03:38:29.900Z,99.75
2018-07-25T03:40:59.119Z,99.28
2018-07-25T03:43:28.267Z,99.20
2018-07-25T03:45:58.271Z,99.08
2018-07-25T03:48:27.493Z,99.50
2018-07-25T03:50:56.682Z,99.52
2018-07-25T03:53:25.888Z,99.97
2018-07-25T03:55:55.075Z,99.62
2018-07-25T03:58:24.215Z,99.40
2018-07-25T04:00:53.653Z,99.42
2018-07-25T04:03:22.795Z,99.41
2018-07-25T04:05:51.927Z,98.78
2018-07-25T04:08:21.159Z,98.41
2018-07-25T04:10:50.573Z,99.06
2018-07-25T04:13:19.877Z,98.75
2018-07-25T04:15:49.038Z,98.50
2018-07-25T04:18:18.169Z,98.16
2018-07-25T04:20:47.346Z,97.57
2018-07-25T04:23:16.591Z,97.54
2018-07-25T04:25:45.714Z,97.24
2018-07-25T04:28:14.865Z,96.98
2018-07-25T04:30:44.022Z,96.80
2018-07-25T04:33:13.156Z,96.31
2018-07-25T04:35:42.328Z,96.10
2018-07-25T04:38:11.476Z,96.27
2018-07-25T04:40:40.637Z,95.93
2018-07-25T04:43:09.803Z,95.54
2018-07-25T04:45:38.949Z,94.72
2018-07-25T04:48:08.138Z,94.20
2018-07-25T04:50:37.263Z,94.42
2018-07-25T04:53:06.775Z,94.17
2018-07-25T04:55:35.913Z,93.07
2018-07-25T04:58:05.094Z,92.20
2018-07-25T05:00:34.243Z,92.24
2018-07-25T05:03:03.381Z,92.05
2018-07-25T05:05:32.521Z,91.98
2018-07-25T05:08:01.710Z,92.17
2018-07-25T05:10:30.884Z,90.81
2018-07-25T05:13:00.076Z,90.57
2018-07-25T05:15:29.272Z,90.69
2018-07-25T05:17:58.495Z,90.64
2018-07-25T05:20:27.587Z,89.92
2018-07-25T05:22:57.146Z,89.26
2018-07-25T05:25:26.279Z,88.82
2018-07-25T05:27:55.395Z,88.18
2018-07-25T05:30:24.764Z,88.65
2018-07-25T05:32:55.491Z,88.35
2018-07-25T05:35:24.614Z,87.52
2018-07-25T05:37:53.797Z,87.58
2018-07-25T05:40:22.969Z,87.06
2018-07-25T05:42:52.132Z,86.34
2018-07-25T05:45:21.340Z,86.60
2018-07-25T05:47:50.461Z,86.15
2018-07-25T05:50:19.600Z,86.96
2018-07-25T05:52:48.763Z,86.66
2018-07-25T05:55:17.962Z,84.99
2018-07-25T05:57:47.120Z,84.37
2018-07-25T06:00:16.381Z,84.66
2018-07-25T06:02:45.682Z,84.98
2018-07-25T06:05:14.894Z,85.29
2018-07-25T06:07:44.052Z,84.44
2018-07-25T06:10:13.221Z,83.95
2018-07-25T06:12:42.423Z,84.34
2018-07-25T06:15:11.566Z,84.68
2018-07-25T06:17:41.010Z,82.94
2018-07-25T06:20:11.079Z,82.58
2018-07-25T06:22:40.622Z,81.85
2018-07-25T06:25:09.801Z,82.27
2018-07-25T06:27:38.975Z,82.07
2018-07-25T06:30:08.221Z,81.83
2018-07-25T06:32:37.347Z,79.58
2018-07-25T06:35:06.618Z,79.08
2018-07-25T06:37:35.756Z,77.94
2018-07-25T06:40:06.925Z,77.44
2018-07-25T06:42:36.300Z,77.18
2018-07-25T06:45:06.798Z,76.85
2018-07-25T06:47:36.300Z,76.65
2018-07-25T06:50:06.702Z,77.80
2018-07-25T06:52:35.966Z,77.44
2018-07-25T06:55:05.162Z,75.63
2018-07-25T06:57:34.315Z,73.92
2018-07-25T07:00:03.844Z,73.43
2018-07-25T07:02:32.998Z,73.78
2018-07-25T07:05:02.193Z,75.89
2018-07-25T07:07:31.349Z,74.26
2018-07-25T07:10:00.510Z,73.62
2018-07-25T07:12:29.639Z,72.40
2018-07-25T07:14:59.659Z,71.71
2018-07-25T07:17:28.863Z,71.49
2018-07-25T07:19:58.018Z,70.87
2018-07-25T07:22:27.742Z,68.25
2018-07-25T07:24:56.882Z,67.71
2018-07-25T07:27:26.079Z,68.96
2018-07-25T07:29:55.268Z,68.07
2018-07-25T07:32:24.462Z,66.96
2018-07-25T07:34:53.604Z,65.66
2018-07-25T07:37:22.779Z,64.88
2018-07-25T07:39:51.883Z,64.94
2018-07-25T07:42:21.127Z,64.88
2018-07-25T07:44:50.453Z,67.43
2018-07-25T07:47:19.648Z,67.49
2018-07-25T07:49:48.814Z,67.85
2018-07-25T07:52:18.220Z,64.83
2018-07-25T07:54:47.345Z,65.46
2018-07-25T07:57:16.521Z,66.73
2018-07-25T07:59:45.677Z,66.56
2018-07-25T08:02:14.828Z,66.11
2018-07-25T08:04:43.964Z,64.61
2018-07-25T08:07:13.851Z,64.62
2018-07-25T08:09:43.125Z,64.45
2018-07-25T08:12:12.275Z,63.96
2018-07-25T08:14:41.556Z,63.83
2018-07-25T08:17:11.361Z,65.86
2018-07-25T08:19:40.551Z,63.35
2018-07-25T08:22:09.677Z,66.55
2018-07-25T08:24:38.806Z,65.23
2018-07-25T08:27:08.254Z,63.23
2018-07-25T08:29:37.399Z,65.02
2018-07-25T08:32:06.700Z,62.83
2018-07-25T08:34:35.897Z,63.25
2018-07-25T08:37:05.085Z,63.08
2018-07-25T08:39:34.199Z,62.51
2018-07-25T08:42:03.369Z,60.11
2018-07-25T08:44:32.593Z,60.51
2018-07-25T08:47:01.752Z,60.78
2018-07-25T08:49:30.885Z,56.70
2018-07-25T08:52:00.147Z,56.04
2018-07-25T08:54:29.270Z,54.80
2018-07-25T08:56:58.413Z,54.78
2018-07-25T08:59:27.539Z,53.18
2018-07-25T09:01:56.752Z,53.60
2018-07-25T09:04:26.755Z,52.58
2018-07-25T09:06:55.962Z,55.95
2018-07-25T09:09:25.082Z,56.43
2018-07-25T09:11:54.245Z,55.36
2018-07-25T09:14:23.385Z,54.35
2018-07-25T09:16:52.675Z,54.89
2018-07-25T09:19:21.806Z,53.47
2018-07-25T09:21:50.963Z,56.82
2018-07-25T09:24:20.177Z,54.95
2018-07-25T09:26:49.353Z,53.74
2018-07-25T09:29:18.535Z,57.14
2018-07-25T09:31:47.699Z,53.25
2018-07-25T09:34:16.934Z,54.62
2018-07-25T09:36:46.027Z,52.64
2018-07-25T09:39:15.198Z,54.47
2018-07-25T09:41:44.425Z,54.49
2018-07-25T09:44:13.577Z,54.35
2018-07-25T09:46:42.800Z,54.61
2018-07-25T09:49:11.881Z,53.21
2018-07-25T09:51:41.046Z,53.48
2018-07-25T09:54:10.275Z,58.55
2018-07-25T09:56:39.467Z,52.09
2018-07-25T09:59:08.622Z,53.25
2018-07-25T10:01:37.808Z,55.11
2018-07-25T10:04:07.197Z,55.71
2018-07-25T10:06:36.349Z,54.85
2018-07-25T10:09:08.909Z,49.99
2018-07-25T10:11:38.061Z,50.78
2018-07-25T10:14:07.858Z,50.58
2018-07-25T10:16:37.058Z,49.35
2018-07-25T10:19:06.862Z,47.33
2018-07-25T10:21:36.104Z,47.09
2018-07-25T10:24:05.557Z,48.36
2018-07-25T10:26:34.706Z,47.87
2018-07-25T10:29:03.866Z,48.77
2018-07-25T10:31:33.048Z,46.29
2018-07-25T10:34:02.233Z,48.76
2018-07-25T10:36:31.353Z,47.04
2018-07-25T10:39:00.617Z,47.08
2018-07-25T10:41:29.738Z,46.83
2018-07-25T10:43:58.872Z,48.27
2018-07-25T10:46:28.222Z,47.15
2018-07-25T10:48:57.526Z,47.60
2018-07-25T10:51:26.581Z,47.04
2018-07-25T10:53:55.890Z,46.52
2018-07-25T10:56:25.332Z,46.11
2018-07-25T10:58:54.485Z,45.75
2018-07-25T11:01:23.701Z,44.34
2018-07-25T11:03:52.939Z,45.87
2018-07-25T11:06:22.058Z,45.88
2018-07-25T11:08:51.246Z,47.39
2018-07-25T11:11:20.375Z,46.07
2018-07-25T11:13:49.509Z,46.23
2018-07-25T11:16:18.753Z,46.60
2018-07-25T11:18:47.951Z,47.01
2018-07-25T11:21:17.105Z,43.42
2018-07-25T11:23:46.273Z,45.03
2018-07-25T11:26:15.479Z,45.89
2018-07-25T11:28:44.618Z,46.98
2018-07-25T11:31:15.366Z,44.88
2018-07-25T11:33:44.561Z,43.75
2018-07-25T11:36:13.737Z,44.85
2018-07-25T11:38:42.973Z,46.14
2018-07-25T11:41:12.116Z,45.81
2018-07-25T11:43:41.300Z,45.78
2018-07-25T11:46:10.495Z,44.29
2018-07-25T11:48:39.693Z,42.27
2018-07-25T11:51:09.122Z,46.28
2018-07-25T11:53:38.304Z,42.74
2018-07-25T11:56:08.038Z,43.36
2018-07-25T11:58:37.186Z,43.72
2018-07-25T12:01:06.663Z,44.24
2018-07-25T12:03:35.773Z,45.59
2018-07-25T12:06:05.065Z,45.39
2018-07-25T12:08:34.199Z,46.60
2018-07-25T12:11:03.472Z,46.34
2018-07-25T12:13:32.723Z,47.01
2018-07-25T12:16:01.870Z,49.94
2018-07-25T12:18:31.061Z,47.66
2018-07-25T12:21:00.207Z,49.63
2018-07-25T12:23:29.366Z,51.93
2018-07-25T12:25:58.494Z,55.27
2018-07-25T12:28:27.639Z,57.74
2018-07-25T12:30:56.829Z,61.50
2018-07-25T12:33:25.995Z,60.72
2018-07-25T12:35:55.261Z,61.11
2018-07-25T12:38:24.477Z,59.68
2018-07-25T12:40:54.098Z,59.65
2018-07-25T12:43:23.224Z,57.64
2018-07-25T12:45:52.398Z,54.55
2018-07-25T12:48:22.422Z,54.48
2018-07-25T12:50:51.607Z,54.13
2018-07-25T12:53:20.902Z,53.83
2018-07-25T12:55:50.025Z,55.59
2018-07-25T12:58:19.343Z,56.20
2018-07-25T13:00:48.593Z,56.73
2018-07-25T13:03:17.745Z,58.32
2018-07-25T13:05:46.950Z,58.23
2018-07-25T13:08:16.184Z,58.59
2018-07-25T13:10:45.357Z,58.30
2018-07-25T13:13:14.534Z,57.00
2018-07-25T13:15:43.748Z,57.17
2018-07-25T13:18:13.047Z,56.44
2018-07-25T13:20:42.251Z,55.60
2018-07-25T13:23:11.719Z,56.23
2018-07-25T13:25:40.874Z,52.17
2018-07-25T13:28:10.054Z,53.32
2018-07-25T13:30:39.234Z,52.99
2018-07-25T13:33:08.572Z,51.69
2018-07-25T13:35:37.776Z,53.41
2018-07-25T13:38:07.141Z,52.40
2018-07-25T13:40:36.310Z,51.81
2018-07-25T13:43:05.906Z,51.87
2018-07-25T13:45:35.204Z,52.36
2018-07-25T13:48:04.284Z,52.72
2018-07-25T13:50:33.482Z,54.04
2018-07-25T13:53:02.857Z,53.90
2018-07-25T13:55:32.047Z,55.82
2018-07-25T13:58:02.598Z,56.00
2018-07-25T14:00:31.790Z,55.99
2018-07-25T14:03:01.330Z,55.95
2018-07-25T14:05:30.506Z,55.70
2018-07-25T14:08:00.041Z,55.15
2018-07-25T14:10:29.249Z,55.87
2018-07-25T14:12:58.437Z,57.03
2018-07-25T14:15:27.669Z,55.78
2018-07-25T14:17:56.972Z,55.04
2018-07-25T14:20:26.066Z,52.90
2018-07-25T14:22:55.218Z,51.59
2018-07-25T14:25:24.409Z,53.20
2018-07-25T14:27:53.626Z,51.78
2018-07-25T14:30:23.024Z,53.18
2018-07-25T14:32:52.104Z,50.29
2018-07-25T14:35:21.283Z,50.12
2018-07-25T14:37:50.620Z,51.08
2018-07-25T14:40:19.966Z,50.35
2018-07-25T14:42:49.118Z,48.35
2018-07-25T14:45:18.300Z,48.93
2018-07-25T14:47:47.477Z,48.60
2018-07-25T14:50:17.209Z,49.51
2018-07-25T14:52:46.415Z,48.52
2018-07-25T14:55:15.576Z,48.39
2018-07-25T14:57:44.789Z,49.02
2018-07-25T15:00:13.989Z,49.64
2018-07-25T15:02:43.186Z,50.62
2018-07-25T15:05:12.342Z,50.04
2018-07-25T15:07:42.147Z,49.70
2018-07-25T15:10:11.379Z,49.82
2018-07-25T15:12:42.507Z,51.88
2018-07-25T15:15:12.589Z,53.41
2018-07-25T15:17:41.793Z,53.46
2018-07-25T15:20:11.308Z,55.23
2018-07-25T15:22:40.601Z,57.50
2018-07-25T15:25:10.205Z,59.81
2018-07-25T15:27:39.347Z,59.66
2018-07-25T15:30:09.748Z,61.34
2018-07-25T15:32:38.930Z,61.95
2018-07-25T15:35:08.835Z,62.62
2018-07-25T15:37:38.143Z,62.81
2018-07-25T15:40:07.915Z,64.93
2018-07-25T15:42:37.086Z,64.63
2018-07-25T15:45:06.583Z,65.74
2018-07-25T15:47:35.756Z,66.54
2018-07-25T15:50:05.939Z,65.84
2018-07-25T15:52:35.154Z,67.03
2018-07-25T15:55:04.355Z,66.20
2018-07-25T15:57:33.694Z,66.24
2018-07-25T16:00:03.026Z,67.10
2018-07-25T16:02:32.251Z,67.07
2018-07-25T16:05:01.404Z,66.17
2018-07-25T16:07:30.585Z,66.94
2018-07-25T16:09:59.787Z,67.49
2018-07-25T16:12:28.896Z,67.52
2018-07-25T16:14:58.129Z,66.44
2018-07-25T16:17:27.293Z,65.94
2018-07-25T16:19:56.484Z,65.53
2018-07-25T16:22:25.648Z,64.57
2018-07-25T16:24:54.834Z,64.13
2018-07-25T16:27:24.075Z,63.06
2018-07-25T16:29:53.313Z,62.03
2018-07-25T16:32:22.450Z,61.94
2018-07-25T16:34:51.588Z,63.95
2018-07-25T16:37:20.815Z,64.11
2018-07-25T16:39:49.973Z,64.56
2018-07-25T16:42:19.483Z,64.49
2018-07-25T16:44:48.664Z,65.98
2018-07-25T16:47:17.841Z,66.81
2018-07-25T16:49:47.008Z,66.72
2018-07-25T16:52:16.173Z,68.36
2018-07-25T16:54:45.731Z,69.89
2018-07-25T16:57:14.897Z,70.60
2018-07-25T16:59:44.100Z,69.36
2018-07-25T17:02:13.269Z,69.92
2018-07-25T17:04:42.437Z,67.35
2018-07-25T17:07:11.763Z,61.49
2018-07-25T17:09:40.921Z,58.87
2018-07-25T17:12:10.149Z,58.42
2018-07-25T17:14:39.830Z,58.77
2018-07-25T17:17:09.302Z,59.99
2018-07-25T17:19:38.499Z,58.86
2018-07-25T17:22:07.660Z,59.32
2018-07-25T17:24:36.850Z,59.40
2018-07-25T17:27:06.210Z,60.03
2018-07-25T17:29:35.372Z,60.30
2018-07-25T17:32:04.541Z,60.85
2018-07-25T17:34:33.697Z,61.94
2018-07-25T17:37:02.899Z,61.20
2018-07-25T17:39:32.074Z,60.60
2018-07-25T17:42:01.318Z,61.07
2018-07-25T17:44:30.485Z,57.97
2018-07-25T17:46:59.645Z,55.08
2018-07-25T17:49:28.815Z,54.99
2018-07-25T17:51:58.010Z,55.95
2018-07-25T17:54:27.169Z,56.45
2018-07-25T17:56:56.369Z,56.50
2018-07-25T17:59:25.469Z,56.41
2018-07-25T18:01:54.633Z,56.18
2018-07-25T18:04:24.846Z,58.27
2018-07-25T18:06:54.124Z,57.36
2018-07-25T18:09:23.261Z,57.17
2018-07-25T18:11:52.533Z,57.80
2018-07-25T18:14:23.191Z,57.84
2018-07-25T18:16:52.386Z,58.84
2018-07-25T18:19:21.592Z,58.05
2018-07-25T18:21:50.820Z,58.10
2018-07-25T18:24:20.013Z,57.79
2018-07-25T18:26:52.407Z,58.52
2018-07-25T18:29:21.651Z,58.37
2018-07-25T18:31:50.748Z,58.20
2018-07-25T18:34:19.958Z,59.02
2018-07-25T18:36:49.496Z,60.06
2018-07-25T18:39:18.652Z,60.08
2018-07-25T18:41:47.887Z,60.75
2018-07-25T18:44:17.927Z,60.99
2018-07-25T18:46:47.139Z,61.63
2018-07-25T18:49:16.305Z,61.93
2018-07-25T18:51:45.521Z,62.29
2018-07-25T18:54:14.710Z,62.51
2018-07-25T18:56:43.898Z,62.76
2018-07-25T18:59:13.107Z,63.87
2018-07-25T19:01:42.351Z,63.30
2018-07-25T19:04:11.476Z,63.99
2018-07-25T19:06:40.685Z,64.72
2018-07-25T19:09:13.922Z,64.95
2018-07-25T19:11:43.142Z,65.45
2018-07-25T19:14:17.567Z,65.41
2018-07-25T19:16:46.753Z,65.86
2018-07-25T19:19:16.012Z,65.96
2018-07-25T19:21:45.198Z,66.45
2018-07-25T19:24:14.367Z,66.31
2018-07-25T19:26:43.497Z,65.37
2018-07-25T19:29:12.701Z,65.71
2018-07-25T19:31:41.849Z,66.53
2018-07-25T19:34:11.294Z,67.41
2018-07-25T19:36:40.462Z,67.00
2018-07-25T19:39:10.650Z,68.03
2018-07-25T19:41:39.815Z,68.03
2018-07-25T19:44:09.075Z,68.46
2018-07-25T19:46:38.216Z,69.16
2018-07-25T19:49:07.536Z,69.87
2018-07-25T19:51:36.761Z,70.11
2018-07-25T19:54:06.083Z,70.07
2018-07-25T19:56:35.263Z,70.72
2018-07-25T19:59:04.538Z,71.01
2018-07-25T20:01:33.795Z,72.12
2018-07-25T20:04:03.083Z,72.06
2018-07-25T20:06:32.306Z,71.44
2018-07-25T20:09:01.518Z,71.59
2018-07-25T20:11:30.786Z,71.44
2018-07-25T20:14:05.218Z,70.27
2018-07-25T20:16:34.331Z,70.51
2018-07-25T20:19:03.502Z,71.59
2018-07-25T20:21:33.807Z,71.80
2018-07-25T20:24:03.266Z,72.73
2018-07-25T20:26:34.556Z,74.49
2018-07-25T20:29:03.726Z,74.73
2018-07-25T20:31:32.885Z,75.96
2018-07-25T20:34:02.115Z,75.98
2018-07-25T20:36:31.265Z,76.22
2018-07-25T20:39:00.528Z,77.30
2018-07-25T20:41:29.687Z,77.32
2018-07-25T20:43:58.840Z,77.73
2018-07-25T20:46:27.974Z,77.47
2018-07-25T20:48:57.119Z,77.38
2018-07-25T20:51:26.390Z,78.13
2018-07-25T20:53:55.744Z,77.71
2018-07-25T20:56:24.932Z,78.14
2018-07-25T20:58:54.086Z,78.31
2018-07-25T21:01:23.238Z,79.62
2018-07-25T21:03:52.392Z,79.97
2018-07-25T21:06:21.545Z,79.73
2018-07-25T21:08:50.674Z,79.94
2018-07-25T21:11:20.022Z,80.43
2018-07-25T21:13:49.176Z,79.97
2018-07-25T21:16:18.581Z,79.97
2018-07-25T21:18:47.900Z,80.16
2018-07-25T21:21:17.265Z,80.01
2018-07-25T21:23:46.512Z,80.04
2018-07-25T21:26:15.819Z,80.46
2018-07-25T21:28:44.969Z,80.10
2018-07-25T21:31:14.123Z,80.33
2018-07-25T21:33:43.309Z,80.29
2018-07-25T21:36:12.592Z,80.64
2018-07-25T21:38:41.816Z,80.82
2018-07-25T21:41:11.352Z,81.43
2018-07-25T21:43:40.514Z,82.88
2018-07-25T21:46:09.662Z,83.33
2018-07-25T21:48:38.822Z,83.08
2018-07-25T21:51:08.111Z,83.45
2018-07-25T21:53:37.298Z,83.79
2018-07-25T21:56:06.569Z,83.08
2018-07-25T21:58:35.754Z,82.48
2018-07-25T22:01:13.517Z,82.49
2018-07-25T22:03:42.757Z,82.45
2018-07-25T22:06:11.849Z,82.87
2018-07-25T22:08:40.997Z,83.09
2018-07-25T22:11:10.174Z,82.82
2018-07-25T22:13:43.596Z,83.37
2018-07-25T22:16:13.133Z,83.62
2018-07-25T22:18:42.418Z,83.94
2018-07-25T22:21:11.838Z,84.49
2018-07-25T22:23:41.060Z,85.07
2018-07-25T22:26:10.200Z,84.40
2018-07-25T22:28:39.564Z,85.27
2018-07-25T22:31:08.957Z,85.99
2018-07-25T22:33:38.120Z,86.14
2018-07-25T22:36:07.895Z,85.55
2018-07-25T22:38:37.004Z,85.74
2018-07-25T22:41:06.616Z,85.91
2018-07-25T22:43:35.989Z,85.85
2018-07-25T22:46:05.284Z,86.21
2018-07-25T22:48:35.193Z,86.03
2018-07-25T22:51:04.343Z,86.39
2018-07-25T22:53:33.500Z,86.00
2018-07-25T22:56:02.855Z,86.55
2018-07-25T22:58:32.014Z,86.36
2018-07-25T23:01:01.175Z,87.08
2018-07-25T23:03:30.322Z,87.05
2018-07-25T23:05:59.511Z,87.12
2018-07-25T23:08:30.291Z,87.22
2018-07-25T23:10:59.441Z,86.42
2018-07-25T23:13:28.616Z,86.44
2018-07-25T23:15:58.035Z,85.93
2018-07-25T23:18:27.249Z,86.49
2018-07-25T23:20:56.419Z,86.46
2018-07-25T23:23:25.585Z,86.66
2018-07-25T23:25:54.714Z,86.59
2018-07-25T23:28:23.916Z,86.75
2018-07-25T23:30:53.118Z,86.48
2018-07-25T23:33:22.430Z,86.56
2018-07-25T23:35:51.599Z,86.94
2018-07-25T23:38:20.750Z,87.49
2018-07-25T23:40:50.345Z,87.30
2018-07-25T23:43:19.528Z,87.17
2018-07-25T23:45:48.688Z,87.66
2018-07-25T23:48:17.888Z,87.64
2018-07-25T23:50:47.177Z,87.39
2018-07-25T23:53:16.324Z,88.00
2018-07-25T23:55:45.510Z,88.30
2018-07-25T23:58:14.668Z,88.10
